Time;durP1;ratioP1;P1;durP2;ratioP2;P2;SDS_P1;SDS_P2;PMS_P1;PMS_P2;Temp;Humidity;BMP_temperature;BMP_pressure;BME280_temperature;BME280_humidity;BME280_pressure;Samples;Min_cycle;Max_cycle;Signal;HPM_P1;HPM_P2
2023/03/10 00:01:39;;;;;;;7.00;4.97;;;;;;;14.16;51.97;98725.31;5073966;28;20020;-85
2023/03/10 00:04:05;;;;;;;10.13;5.35;;;;;;;14.74;51.88;98825.00;5073819;28;20107;-85
2023/03/10 00:06:33;;;;;;;7.82;5.38;;;;;;;14.14;51.96;98731.88;5072510;28;20028;-85
2023/03/10 00:08:59;;;;;;;7.65;5.68;;;;;;;14.74;52.17;98830.31;5073834;28;20055;-85
2023/03/10 00:11:24;;;;;;;11.60;8.70;;;;;;;14.57;52.25;98792.91;5073769;28;20504;-85
2023/03/10 00:13:51;;;;;;;27.50;18.38;;;;;;;14.75;52.28;98814.16;5073676;28;20457;-85
2023/03/10 00:16:25;;;;;;;28.20;19.20;;;;;;;14.57;52.04;98792.91;5072429;28;20039;-85
2023/03/10 00:18:51;;;;;;;24.13;15.93;;;;;;;14.40;52.32;98768.75;5073876;28;20467;-85
2023/03/10 00:21:29;;;;;;;16.88;11.27;;;;;;;14.72;52.28;98824.41;5073638;28;20107;-84
2023/03/10 00:23:55;;;;;;;13.77;9.43;;;;;;;14.71;52.48;98825.44;5073232;28;20079;-85
2023/03/10 00:26:22;;;;;;;9.88;7.15;;;;;;;14.07;52.54;98752.31;5073369;28;20028;-85
2023/03/10 00:28:49;;;;;;;9.15;5.35;;;;;;;14.41;52.53;98801.44;5071911;28;20027;-85
2023/03/10 00:31:18;;;;;;;12.07;7.55;;;;;;;14.30;52.33;98792.34;5072033;28;20063;-85
2023/03/10 00:33:44;;;;;;;9.93;7.63;;;;;;;14.67;52.26;98832.22;5071960;28;20051;-84
2023/03/10 00:36:21;;;;;;;10.40;6.72;;;;;;;14.64;52.31;98838.78;5072058;28;20446;-85
2023/03/10 00:38:47;;;;;;;7.40;5.32;;;;;;;14.65;52.35;98840.41;5073231;28;20566;-85
2023/03/10 00:41:17;;;;;;;7.57;4.68;;;;;;;14.68;52.32;98839.16;5073106;28;20082;-84
2023/03/10 00:43:43;;;;;;;7.13;4.78;;;;;;;14.02;52.10;98725.63;5071635;28;20025;-85
2023/03/10 00:46:09;;;;;;;5.57;4.20;;;;;;;14.38;52.39;98776.13;5072890;28;20024;-84
2023/03/10 00:48:35;;;;;;;5.13;4.00;;;;;;;14.63;52.37;98811.41;5071652;28;20039;-85
2023/03/10 00:51:02;;;;;;;5.38;4.00;;;;;;;14.60;52.48;98808.41;5072975;28;20048;-85
2023/03/10 00:53:28;;;;;;;6.78;4.50;;;;;;;14.57;52.49;98806.19;5071559;28;20032;-85
2023/03/10 00:56:00;;;;;;;6.28;4.55;;;;;;;14.51;52.36;98805.22;5073045;28;20419;-85
2023/03/10 00:58:27;;;;;;;6.88;4.70;;;;;;;12.95;52.59;98550.75;5071594;28;20035;-85
2023/03/10 01:00:53;;;;;;;7.10;5.40;;;;;;;14.48;52.31;98796.88;5072880;28;20519;-85
2023/03/10 01:03:19;;;;;;;6.45;5.30;;;;;;;13.95;52.60;98718.56;5071363;28;20021;-85
2023/03/10 01:05:45;;;;;;;6.47;4.55;;;;;;;14.23;52.53;98752.59;5072549;28;20047;-85
2023/03/10 01:08:10;;;;;;;6.55;4.47;;;;;;;14.21;52.82;98748.53;5072617;28;20497;-85
2023/03/10 01:10:35;;;;;;;7.78;4.40;;;;;;;13.88;52.59;98712.50;5071226;28;20027;-85
2023/03/10 01:13:01;;;;;;;7.22;4.57;;;;;;;14.32;52.80;98774.34;5072511;28;20028;-85
2023/03/10 01:15:26;;;;;;;7.13;5.05;;;;;;;14.07;52.83;98762.94;5072599;28;20083;-85
2023/03/10 01:17:52;;;;;;;12.85;8.90;;;;;;;12.85;52.87;98566.34;5072624;28;20410;-85
2023/03/10 01:20:17;;;;;;;16.27;8.85;;;;;;;14.44;53.01;98804.47;5072411;28;20052;-85
2023/03/10 01:22:43;;;;;;;10.93;7.40;;;;;;;13.73;52.83;98693.47;5070999;28;20028;-84
2023/03/10 01:25:13;;;;;;;10.75;6.95;;;;;;;13.90;53.17;98733.50;5072236;28;20146;-85
2023/03/10 01:27:39;;;;;;;11.63;6.75;;;;;;;13.52;53.19;98699.16;5072399;28;20107;-85
2023/03/10 01:30:05;;;;;;;10.40;7.25;;;;;;;13.98;53.16;98771.19;5070921;28;20033;-85
2023/03/10 01:32:31;;;;;;;13.95;7.93;;;;;;;13.63;53.46;98706.41;5071922;28;20540;-85
2023/03/10 01:34:56;;;;;;;11.77;7.25;;;;;;;14.11;53.36;98769.44;5071990;28;20047;-85
2023/03/10 01:37:22;;;;;;;10.82;7.07;;;;;;;14.09;53.48;98790.88;5072233;28;20031;-85
2023/03/10 01:39:47;;;;;;;10.43;6.38;;;;;;;13.35;53.62;98681.13;5070810;28;20020;-85
2023/03/10 01:42:12;;;;;;;9.85;7.00;;;;;;;13.30;53.62;98669.56;5072101;28;20099;-85
2023/03/10 01:44:38;;;;;;;10.40;6.38;;;;;;;13.26;53.82;98666.53;5070647;28;20135;-85
2023/03/10 01:47:03;;;;;;;9.80;6.90;;;;;;;14.13;53.58;98813.34;5071817;28;20522;-85
2023/03/10 01:49:44;;;;;;;12.88;8.20;;;;;;;13.52;54.23;98725.69;5070277;28;20028;-85
2023/03/10 01:52:18;;;;;;;12.10;7.13;;;;;;;13.42;54.06;98712.09;5070478;28;20044;-85
2023/03/10 01:54:54;;;;;;;10.27;6.30;;;;;;;13.50;54.03;98748.97;5071882;28;20259;-85
2023/03/10 01:57:25;;;;;;;9.15;5.43;;;;;;;13.23;54.17;98711.22;5071732;28;20103;-85
2023/03/10 01:59:52;;;;;;;12.53;6.23;;;;;;;13.41;54.45;98748.41;5071690;28;20024;-85
2023/03/10 02:02:18;;;;;;;11.20;6.20;;;;;;;13.52;54.48;98770.78;5071768;28;20035;-85
2023/03/10 02:04:47;;;;;;;8.57;6.07;;;;;;;13.61;54.64;98811.91;5070344;28;20033;-85
2023/03/10 02:07:15;;;;;;;8.25;5.20;;;;;;;13.78;54.49;98820.97;5070412;28;20032;-85
2023/03/10 02:09:46;;;;;;;6.97;5.30;;;;;;;13.41;54.58;98761.69;5070238;28;20032;-85
2023/03/10 02:12:14;;;;;;;9.63;6.07;;;;;;;13.77;54.40;98816.69;5071159;28;20545;-85
2023/03/10 02:14:42;;;;;;;9.85;6.07;;;;;;;13.65;54.41;98810.47;5071520;28;20413;-85
2023/03/10 02:17:12;;;;;;;8.20;5.75;;;;;;;13.48;54.58;98782.84;5071983;28;20113;-85
2023/03/10 02:19:46;;;;;;;10.35;6.10;;;;;;;13.67;54.77;98811.88;5071679;28;20107;-85
2023/03/10 02:22:14;;;;;;;12.18;6.32;;;;;;;12.76;54.93;98667.47;5071486;28;20039;-85
2023/03/10 02:24:52;;;;;;;11.65;6.40;;;;;;;13.20;55.13;98757.50;5069806;28;20048;-85
2023/03/10 02:27:21;;;;;;;10.13;6.30;;;;;;;13.55;55.60;98818.09;5070094;28;20032;-85
2023/03/10 02:30:05;;;;;;;11.80;6.47;;;;;;;13.51;55.34;98822.19;5070160;28;20054;-85
2023/03/10 02:32:33;;;;;;;10.48;6.38;;;;;;;13.49;55.26;98824.25;5071204;28;20040;-85
2023/03/10 02:34:59;;;;;;;6.82;5.97;;;;;;;12.47;55.40;98677.59;5069906;28;20107;-85
2023/03/10 02:37:28;;;;;;;12.35;6.53;;;;;;;12.87;55.40;98746.25;5071582;28;20173;-85
2023/03/10 02:39:54;;;;;;;13.05;6.00;;;;;;;13.33;55.41;98825.53;5071298;28;20090;-85
2023/03/10 02:42:23;;;;;;;12.65;6.45;;;;;;;12.87;55.68;98746.25;5071354;28;20042;-85
2023/03/10 02:44:50;;;;;;;11.27;6.55;;;;;;;13.00;55.96;98791.25;5071125;28;20523;-85
2023/03/10 02:47:16;;;;;;;15.55;7.13;;;;;;;12.94;55.62;98786.78;5071220;28;20033;-85
2023/03/10 02:49:42;;;;;;;14.65;7.68;;;;;;;12.95;55.79;98781.28;5069823;28;20028;-85
2023/03/10 02:52:43;;;;;;;11.05;6.32;;;;;;;12.98;56.13;98788.00;5071030;28;20417;-85
2023/03/10 02:55:14;;;;;;;9.20;7.17;;;;;;;12.95;55.85;98797.16;5057751;28;20113;-85
2023/03/10 02:57:39;;;;;;;12.93;8.03;;;;;;;12.89;55.98;98790.06;5069623;28;20024;-85
2023/03/10 03:00:07;;;;;;;10.43;7.60;;;;;;;13.17;55.81;98832.16;5071023;28;20081;-86
2023/03/10 03:02:32;;;;;;;13.70;8.30;;;;;;;12.40;55.88;98713.88;5069731;28;20029;-85
2023/03/10 03:04:57;;;;;;;12.57;8.00;;;;;;;12.67;55.94;98747.19;5071067;28;20035;-85
2023/03/10 03:07:23;;;;;;;11.40;7.45;;;;;;;12.22;56.12;98680.13;5070900;28;20086;-85
2023/03/10 03:09:48;;;;;;;14.45;7.68;;;;;;;13.15;55.99;98838.66;5070737;28;20028;-85
2023/03/10 03:12:14;;;;;;;12.55;7.60;;;;;;;12.93;55.96;98819.59;5069495;28;20409;-85
2023/03/10 03:14:39;;;;;;;10.60;7.40;;;;;;;12.75;56.06;98793.00;5070804;28;20417;-85
2023/03/10 03:17:04;;;;;;;12.57;8.65;;;;;;;12.95;56.08;98810.41;5070681;28;20081;-85
2023/03/10 03:19:30;;;;;;;12.38;9.00;;;;;;;12.90;56.05;98815.53;5070743;28;20025;-85
2023/03/10 03:21:55;;;;;;;15.50;9.50;;;;;;;13.15;56.18;98842.13;5070776;28;20037;-85
2023/03/10 03:24:21;;;;;;;12.60;8.45;;;;;;;12.57;56.45;98764.50;5073739;28;20052;-85
2023/03/10 03:26:46;;;;;;;16.85;9.98;;;;;;;12.57;56.31;98756.56;5074544;28;20107;-85
2023/03/10 03:29:12;;;;;;;14.15;10.50;;;;;;;12.80;56.50;98801.94;5074405;28;20024;-86
2023/03/10 03:31:38;;;;;;;11.07;7.50;;;;;;;12.28;56.46;98732.22;5074217;28;20028;-84
2023/03/10 03:34:04;;;;;;;12.32;7.25;;;;;;;12.82;56.36;98838.81;5074279;28;20083;-85
2023/03/10 03:36:30;;;;;;;8.57;7.10;;;;;;;12.68;56.36;98819.50;5074246;28;20027;-85
2023/03/10 03:38:55;;;;;;;10.55;7.72;;;;;;;12.44;56.65;98788.38;5074465;28;20103;-85
2023/03/10 03:41:21;;;;;;;11.65;7.63;;;;;;;12.66;56.64;98838.25;5073151;28;20028;-85
2023/03/10 03:43:46;;;;;;;8.73;6.18;;;;;;;12.22;56.45;98774.59;5074217;28;20032;-85
2023/03/10 03:46:11;;;;;;;6.80;5.65;;;;;;;11.99;56.42;98733.53;5074001;28;20029;-85
2023/03/10 03:48:37;;;;;;;7.18;5.47;;;;;;;10.99;56.00;98570.72;5072907;28;20020;-85
2023/03/10 03:51:03;;;;;;;7.35;5.40;;;;;;;12.69;56.43;98832.53;5074370;28;20543;-85
2023/03/10 03:53:29;;;;;;;8.30;5.65;;;;;;;12.08;56.21;98737.59;5074067;28;20103;-84
2023/03/10 03:55:54;;;;;;;7.25;5.78;;;;;;;12.63;56.07;98833.38;5074108;28;20048;-85
2023/03/10 03:58:20;;;;;;;8.70;5.90;;;;;;;11.88;56.07;98702.41;5074127;28;20060;-85
2023/03/10 04:00:45;;;;;;;8.57;5.63;;;;;;;12.12;55.95;98750.41;5074074;28;20456;-85
2023/03/10 04:03:10;;;;;;;8.50;5.85;;;;;;;12.25;55.94;98766.25;5074079;28;20082;-84
2023/03/10 04:05:36;;;;;;;7.75;5.97;;;;;;;12.48;55.96;98802.84;5072585;28;20059;-85
2023/03/10 04:08:02;;;;;;;8.77;7.15;;;;;;;12.53;56.01;98808.31;5072516;28;20541;-85
2023/03/10 04:10:27;;;;;;;11.02;7.38;;;;;;;12.44;56.38;98780.44;5073697;28;20021;-85
2023/03/10 04:12:53;;;;;;;9.77;7.43;;;;;;;12.13;56.06;98742.25;5073810;28;20099;-85
2023/03/10 04:15:19;;;;;;;9.50;7.63;;;;;;;12.21;56.15;98788.84;5073691;28;20024;-85
2023/03/10 04:17:45;;;;;;;9.25;7.35;;;;;;;12.50;56.28;98795.50;5072606;28;20498;-85
2023/03/10 04:20:14;;;;;;;12.95;8.27;;;;;;;12.70;56.13;98820.91;5073976;28;20086;-85
2023/03/10 04:22:40;;;;;;;12.60;8.40;;;;;;;12.71;55.98;98822.53;5073957;28;20082;-85
2023/03/10 04:25:07;;;;;;;12.77;8.10;;;;;;;12.48;56.21;98785.13;5073649;28;20036;-85
2023/03/10 04:27:33;;;;;;;11.85;7.93;;;;;;;12.40;56.37;98788.00;5073683;28;20025;-86
2023/03/10 04:29:59;;;;;;;15.93;7.85;;;;;;;11.88;56.63;98723.56;5072511;28;20028;-85
2023/03/10 04:32:24;;;;;;;11.82;7.53;;;;;;;11.69;56.59;98682.06;5072086;28;20024;-85
2023/03/10 04:34:50;;;;;;;14.55;7.68;;;;;;;12.56;56.78;98816.66;5072973;28;20024;-86
2023/03/10 04:37:16;;;;;;;11.10;7.47;;;;;;;12.16;56.20;98746.31;5073387;28;20169;-86
2023/03/10 04:39:41;;;;;;;13.85;8.13;;;;;;;12.56;56.70;98839.69;5073270;28;20057;-85
2023/03/10 04:42:07;;;;;;;13.57;8.23;;;;;;;12.58;56.28;98819.91;5073289;28;20028;-85
2023/03/10 04:44:33;;;;;;;13.43;9.35;;;;;;;12.60;56.49;98827.66;5072989;28;20394;-85
2023/03/10 04:46:59;;;;;;;12.18;8.25;;;;;;;12.63;56.40;98821.94;5072986;28;20497;-85
2023/03/10 04:49:24;;;;;;;21.33;13.05;;;;;;;12.27;56.31;98766.84;5071982;28;20464;-85
2023/03/10 04:51:50;;;;;;;17.02;12.90;;;;;;;12.61;56.53;98826.63;5072883;28;20065;-84
2023/03/10 04:54:15;;;;;;;19.45;14.05;;;;;;;12.64;56.59;98831.53;5072829;28;20024;-84
2023/03/10 04:56:41;;;;;;;19.15;14.02;;;;;;;12.13;56.70;98746.72;5072856;28;20485;-86
2023/03/10 04:59:07;;;;;;;24.08;14.05;;;;;;;11.98;56.71;98721.31;5071513;28;20055;-86
2023/03/10 05:01:33;;;;;;;19.48;13.13;;;;;;;12.41;56.63;98797.56;5071532;28;20032;-86
2023/03/10 05:04:00;;;;;;;18.65;13.10;;;;;;;12.04;56.74;98733.72;5072932;28;20020;-86
2023/03/10 05:06:25;;;;;;;19.02;12.85;;;;;;;12.53;56.37;98808.31;5071569;28;20089;-86
2023/03/10 05:08:51;;;;;;;22.65;14.77;;;;;;;12.37;56.56;98793.69;5072532;28;20455;-85
2023/03/10 05:11:16;;;;;;;18.67;12.90;;;;;;;12.71;56.44;98830.50;5072891;28;20550;-85
2023/03/10 05:13:42;;;;;;;18.65;13.60;;;;;;;12.77;56.66;98830.69;5072797;28;20025;-86
2023/03/10 05:16:15;;;;;;;20.63;13.35;;;;;;;11.99;56.47;98704.44;5072912;28;20012;-86
2023/03/10 05:18:41;;;;;;;19.52;13.90;;;;;;;12.44;56.26;98783.91;5072493;28;20540;-86
2023/03/10 05:21:06;;;;;;;22.77;13.18;;;;;;;12.38;56.23;98756.44;5072238;28;20103;-86
2023/03/10 05:23:32;;;;;;;20.15;12.90;;;;;;;12.60;56.33;98791.38;5072293;28;20437;-86
2023/03/10 05:25:57;;;;;;;18.35;11.73;;;;;;;12.32;56.26;98777.63;5072104;28;20489;-86
2023/03/10 05:28:23;;;;;;;34.35;29.40;;;;;;;12.33;56.32;98766.84;5072216;28;20036;-86
2023/03/10 05:30:49;;;;;;;29.70;24.58;;;;;;;12.34;56.39;98788.81;5072201;28;20028;-86
2023/03/10 05:33:14;;;;;;;28.27;19.65;;;;;;;11.96;56.30;98715.44;5072270;28;20020;-86
2023/03/10 05:35:39;;;;;;;24.20;18.73;;;;;;;12.21;56.31;98727.97;5072145;28;20459;-86
2023/03/10 05:38:05;;;;;;;21.15;13.38;;;;;;;12.07;56.31;98698.09;5070976;28;20025;-86
2023/03/10 05:40:30;;;;;;;20.73;12.82;;;;;;;12.38;55.89;98751.13;5070951;28;20024;-86
2023/03/10 05:42:56;;;;;;;19.58;12.63;;;;;;;12.78;56.31;98811.13;5071901;28;20027;-85
2023/03/10 05:45:21;;;;;;;23.40;14.40;;;;;;;12.96;56.04;98848.31;5071000;28;20024;-86
2023/03/10 05:47:47;;;;;;;26.77;17.50;;;;;;;12.80;56.38;98828.41;5071755;28;20029;-86
2023/03/10 05:50:13;;;;;;;28.90;19.17;;;;;;;12.50;56.41;98787.56;5071714;28;20024;-86
2023/03/10 05:52:41;;;;;;;26.50;17.92;;;;;;;12.89;56.23;98839.59;5070408;28;20032;-86
2023/03/10 05:55:10;;;;;;;28.95;17.88;;;;;;;12.55;56.15;98780.59;5071885;28;20052;-87
2023/03/10 05:57:36;;;;;;;26.05;17.67;;;;;;;12.91;56.29;98848.16;5071623;28;20016;-86
2023/03/10 06:00:03;;;;;;;25.75;18.13;;;;;;;12.91;56.30;98840.19;5071690;28;20146;-86
2023/03/10 06:02:28;;;;;;;26.73;18.30;;;;;;;12.37;56.23;98757.44;5070296;28;20025;-86
2023/03/10 06:04:54;;;;;;;29.00;20.02;;;;;;;12.38;56.35;98758.25;5071282;28;20024;-86
2023/03/10 06:07:19;;;;;;;29.77;17.35;;;;;;;12.52;56.32;98804.03;5071596;28;20024;-86
2023/03/10 06:09:45;;;;;;;35.65;18.85;;;;;;;12.70;56.40;98805.03;5070294;28;20166;-86
2023/03/10 06:12:10;;;;;;;25.60;17.67;;;;;;;12.59;56.32;98792.41;5071593;28;20111;-86
2023/03/10 06:14:37;;;;;;;23.88;16.67;;;;;;;13.04;56.11;98856.03;5071338;28;20024;-86
2023/03/10 06:17:03;;;;;;;26.30;17.95;;;;;;;12.43;55.77;98739.09;5053364;28;20040;-84
2023/03/10 06:19:28;;;;;;;23.50;16.92;;;;;;;12.42;55.96;98727.69;5055260;28;20020;-84
2023/03/10 06:21:54;;;;;;;24.27;16.02;;;;;;;13.24;55.88;98848.84;5068767;28;20028;-84
2023/03/10 06:24:19;;;;;;;33.47;19.05;;;;;;;13.30;55.74;98839.22;5052183;28;20048;-84
2023/03/10 06:26:44;;;;;;;29.02;18.90;;;;;;;12.92;55.57;98780.88;5068095;28;20078;-84
2023/03/10 06:29:10;;;;;;;32.45;18.77;;;;;;;13.04;55.55;98803.84;5068276;28;20432;-85
2023/03/10 06:31:35;;;;;;;31.85;18.05;;;;;;;13.38;55.56;98851.41;5070960;28;20032;-83
2023/03/10 06:34:01;;;;;;;27.92;19.63;;;;;;;13.11;55.41;98808.31;5062024;28;20037;-84
2023/03/10 06:36:30;;;;;;;28.98;19.17;;;;;;;13.38;55.13;98848.75;5050887;28;20025;-84
2023/03/10 06:38:56;;;;;;;25.88;16.40;;;;;;;13.55;55.12;98857.88;5051248;28;20418;-85
2023/03/10 06:41:22;;;;;;;28.73;17.35;;;;;;;13.61;55.21;98863.13;5051103;28;20033;-85
2023/03/10 06:43:48;;;;;;;30.00;19.77;;;;;;;13.38;54.91;98815.13;5049344;28;20029;-84
2023/03/10 06:46:14;;;;;;;25.98;19.15;;;;;;;13.40;54.59;98817.56;5049887;28;20029;-84
2023/03/10 06:48:40;;;;;;;30.27;19.13;;;;;;;13.73;54.61;98857.94;5050466;28;20107;-84
2023/03/10 06:51:08;;;;;;;25.50;18.88;;;;;;;13.42;54.60;98803.06;5049996;28;20055;-84
2023/03/10 06:53:33;;;;;;;24.00;17.38;;;;;;;13.02;54.41;98731.69;5058270;28;20028;-84
2023/03/10 06:56:05;;;;;;;36.53;20.02;;;;;;;13.89;54.44;98864.56;5070553;28;20028;-84
2023/03/10 06:58:32;;;;;;;24.42;18.52;;;;;;;13.05;54.42;98714.56;5058598;28;20032;-84
2023/03/10 07:00:57;;;;;;;31.42;19.08;;;;;;;13.84;54.23;98835.22;5067936;28;20036;-84
2023/03/10 07:03:25;;;;;;;30.73;20.13;;;;;;;13.78;54.32;98828.94;5053594;28;20040;-85
2023/03/10 07:05:51;;;;;;;30.45;18.85;;;;;;;13.67;54.08;98801.25;5054761;28;20051;-84
2023/03/10 07:08:17;;;;;;;44.97;25.88;;;;;;;13.40;54.08;98757.41;5055872;28;20498;-84
2023/03/10 07:10:43;;;;;;;30.27;19.20;;;;;;;14.17;53.78;98872.13;5058450;28;20115;-84
2023/03/10 07:13:12;;;;;;;30.40;20.88;;;;;;;13.03;53.94;98690.13;5053306;28;20056;-84
2023/03/10 07:15:38;;;;;;;33.22;19.33;;;;;;;13.41;54.12;98732.50;5053102;28;20025;-84
2023/03/10 07:18:03;;;;;;;29.83;21.15;;;;;;;14.29;54.04;98865.88;5059656;28;20051;-85
2023/03/10 07:20:29;;;;;;;32.65;20.30;;;;;;;14.17;54.30;98835.78;5073226;28;20508;-83
2023/03/10 07:22:54;;;;;;;26.58;17.42;;;;;;;14.15;53.89;98816.59;5074338;28;20025;-83
2023/03/10 07:25:19;;;;;;;26.52;17.25;;;;;;;13.96;53.82;98770.59;5074082;28;20032;-84
2023/03/10 07:27:45;;;;;;;24.50;16.52;;;;;;;14.04;53.73;98761.53;5074314;28;20035;-83
2023/03/10 07:30:11;;;;;;;23.15;17.63;;;;;;;14.16;53.73;98783.72;5057679;28;20021;-82
2023/03/10 07:32:36;;;;;;;24.45;18.83;;;;;;;14.37;53.52;98792.28;5061337;28;20026;-83
2023/03/10 07:35:02;;;;;;;27.63;18.55;;;;;;;14.82;53.77;98851.28;5072515;28;20090;-83
2023/03/10 07:37:28;;;;;;;31.85;18.80;;;;;;;14.90;53.62;98843.03;5072440;28;20029;-83
2023/03/10 07:39:54;;;;;;;28.92;18.33;;;;;;;14.28;53.64;98722.72;5070607;28;20056;-83
2023/03/10 07:42:19;;;;;;;26.45;19.08;;;;;;;14.67;53.46;98763.16;5066151;28;20032;-83
2023/03/10 07:44:45;;;;;;;29.25;18.77;;;;;;;14.66;53.45;98735.78;5070083;28;20047;-83
2023/03/10 07:47:10;;;;;;;18.58;14.25;;;;;;;14.89;53.30;98759.00;5073432;28;20103;-83
2023/03/10 07:49:36;;;;;;;20.80;15.73;;;;;;;15.22;53.24;98785.13;5072891;28;20037;-83
2023/03/10 07:52:01;;;;;;;16.27;11.77;;;;;;;15.16;53.13;98760.25;5070730;28;20024;-83
2023/03/10 07:54:27;;;;;;;21.30;14.10;;;;;;;15.06;53.19;98746.69;5061514;28;20477;-82
2023/03/10 07:56:52;;;;;;;13.15;8.07;;;;;;;15.82;52.76;98851.63;5070801;28;20637;-83
2023/03/10 07:59:18;;;;;;;5.45;4.03;;;;;;;15.47;52.39;98779.66;5069540;28;20035;-83
2023/03/10 08:01:43;;;;;;;7.30;4.72;;;;;;;15.97;51.97;98849.34;5070503;28;20562;-83
2023/03/10 08:04:11;;;;;;;5.40;3.15;;;;;;;14.39;51.85;98612.28;5067467;28;20040;-84
2023/03/10 08:06:37;;;;;;;4.45;3.65;;;;;;;16.05;51.75;98856.19;5051153;28;20032;-83
2023/03/10 08:09:02;;;;;;;8.65;6.10;;;;;;;16.12;51.44;98852.38;5052097;28;20025;-85
2023/03/10 08:11:28;;;;;;;5.88;4.13;;;;;;;15.79;51.33;98801.53;5069212;28;20024;-86
2023/03/10 08:13:53;;;;;;;8.63;6.95;;;;;;;16.17;51.57;98847.16;5073521;28;20029;-85
2023/03/10 08:16:20;;;;;;;8.18;6.43;;;;;;;15.54;51.15;98735.94;5072408;28;20059;-85
2023/03/10 08:18:47;;;;;;;7.22;4.95;;;;;;;15.87;50.90;98788.69;5067429;28;20052;-84
2023/03/10 08:21:13;;;;;;;7.70;3.78;;;;;;;15.76;50.67;98788.66;5057342;28;20028;-86
2023/03/10 08:23:38;;;;;;;6.32;4.18;;;;;;;16.04;50.40;98796.78;5072731;28;20410;-85
2023/03/10 08:26:06;;;;;;;3.75;3.42;;;;;;;16.17;50.47;98814.38;5072679;28;20017;-85
2023/03/10 08:28:34;;;;;;;5.53;3.15;;;;;;;16.59;50.18;98851.56;5072477;28;20028;-85
2023/03/10 08:30:59;;;;;;;6.38;3.55;;;;;;;16.50;50.39;98819.13;5072773;28;20024;-85
2023/03/10 08:33:27;;;;;;;4.05;3.30;;;;;;;16.38;49.94;98797.84;5071583;28;20036;-86
2023/03/10 08:36:27;;;;;;;5.10;3.95;;;;;;;16.74;50.17;98838.59;5067643;28;20113;-86
2023/03/10 08:38:53;;;;;;;7.30;6.00;;;;;;;16.64;50.57;98817.84;5072454;28;20090;-85
2023/03/10 08:41:21;;;;;;;8.73;5.63;;;;;;;16.84;50.16;98831.63;5072811;28;20032;-85
2023/03/10 08:43:49;;;;;;;5.70;4.30;;;;;;;16.81;50.15;98812.63;5071715;28;20035;-86
2023/03/10 08:46:15;;;;;;;5.57;4.60;;;;;;;16.94;50.28;98827.53;5071423;28;20051;-85
2023/03/10 08:48:41;;;;;;;8.32;5.22;;;;;;;16.55;50.11;98754.47;5070380;28;20033;-86
2023/03/10 08:51:07;;;;;;;7.47;3.85;;;;;;;16.85;50.45;98827.09;5068792;28;20021;-86
2023/03/10 08:53:35;;;;;;;6.03;4.03;;;;;;;17.05;50.39;98832.81;5072539;28;20417;-85
2023/03/10 08:56:01;;;;;;;8.35;5.03;;;;;;;16.84;50.63;98820.94;5071198;28;20413;-85
2023/03/10 08:58:26;;;;;;;4.00;3.42;;;;;;;16.35;50.24;98753.03;5072184;28;20020;-86
2023/03/10 09:00:51;;;;;;;7.95;3.63;;;;;;;16.81;50.60;98767.28;5072530;28;20036;-85
2023/03/10 09:03:18;;;;;;;10.00;4.55;;;;;;;17.23;51.00;98812.38;5071286;28;20466;-85
2023/03/10 09:05:43;;;;;;;8.13;3.97;;;;;;;17.06;51.12;98794.44;5068872;28;20028;-86
2023/03/10 09:08:09;;;;;;;5.95;3.78;;;;;;;16.61;51.33;98716.22;5071513;28;20032;-83
2023/03/10 09:10:36;;;;;;;6.60;4.38;;;;;;;16.98;51.55;98800.16;5071008;28;20149;-84
2023/03/10 09:13:01;;;;;;;6.75;3.90;;;;;;;17.25;51.49;98810.28;5070992;28;20075;-85
2023/03/10 09:15:27;;;;;;;9.18;4.55;;;;;;;16.94;51.53;98764.34;5068885;28;20074;-84
2023/03/10 09:17:53;;;;;;;7.63;4.25;;;;;;;16.94;51.57;98743.00;5068271;28;20089;-86
2023/03/10 09:20:21;;;;;;;7.78;4.35;;;;;;;16.15;52.07;98606.88;5065884;28;20031;-85
2023/03/10 09:22:47;;;;;;;9.55;4.38;;;;;;;17.40;51.72;98806.03;5064949;28;20039;-85
2023/03/10 09:25:12;;;;;;;9.43;4.20;;;;;;;17.22;52.23;98797.41;5061903;28;20028;-86
2023/03/10 09:27:38;;;;;;;5.85;4.13;;;;;;;17.16;52.22;98785.84;5056450;28;20108;-85
2023/03/10 09:30:04;;;;;;;15.15;9.10;;;;;;;16.56;52.35;98684.16;5067476;28;20033;-86
2023/03/10 09:32:29;;;;;;;8.65;4.10;;;;;;;16.50;52.36;98678.72;5065635;28;20025;-84
2023/03/10 09:34:55;;;;;;;8.85;5.20;;;;;;;16.90;52.61;98736.53;5068230;28;20103;-85
2023/03/10 09:37:20;;;;;;;9.50;6.22;;;;;;;16.82;52.61;98713.72;5066444;28;20031;-84
2023/03/10 09:39:46;;;;;;;6.55;4.72;;;;;;;16.70;52.79;98712.97;5062873;28;20016;-86
2023/03/10 09:42:41;;;;;;;8.20;4.63;;;;;;;16.87;52.89;98734.34;5070008;28;20459;-86
2023/03/10 09:45:17;;;;;;;9.57;5.32;;;;;;;17.26;52.87;98764.69;5053058;28;20024;-85
2023/03/10 09:48:03;;;;;;;12.82;6.57;;;;;;;17.40;52.78;98757.19;5069158;28;20025;-86
2023/03/10 09:50:37;;;;;;;9.02;6.57;;;;;;;17.46;52.71;98762.38;5058645;28;20497;-85
2023/03/10 09:53:27;;;;;;;8.85;4.22;;;;;;;17.57;52.83;98775.88;5062394;28;20028;-86
2023/03/10 09:55:53;;;;;;;5.07;4.38;;;;;;;17.34;52.67;98715.47;5046432;28;20493;-85
2023/03/10 09:58:46;;;;;;;9.23;5.20;;;;;;;17.74;52.41;98766.84;5043939;28;20024;-86
2023/03/10 10:01:32;;;;;;;7.75;4.65;;;;;;;17.89;52.33;98744.13;5044817;28;20056;-85
2023/03/10 10:04:16;;;;;;;12.65;4.60;;;;;;;18.01;51.92;98767.03;5041721;28;20101;-86
2023/03/10 10:06:46;;;;;;;9.32;4.70;;;;;;;18.14;51.57;98757.84;5049825;28;20032;-86
2023/03/10 10:09:29;;;;;;;8.32;4.80;;;;;;;18.16;51.64;98746.91;5048825;28;20052;-86
2023/03/10 10:11:55;;;;;;;8.30;4.55;;;;;;;17.70;51.39;98671.47;5048357;28;20438;-85
2023/03/10 10:14:21;;;;;;;10.45;4.38;;;;;;;18.17;51.36;98737.84;5047744;28;20023;-85
2023/03/10 10:16:58;;;;;;;7.75;4.00;;;;;;;18.17;51.47;98735.19;5048497;28;20425;-83
2023/03/10 10:19:26;;;;;;;8.77;3.92;;;;;;;17.46;51.32;98628.13;5047069;28;20029;-87
2023/03/10 10:22:03;;;;;;;9.15;5.70;;;;;;;17.79;51.18;98648.63;5047992;28;20087;-87
2023/03/10 10:24:29;;;;;;;7.55;4.32;;;;;;;18.07;51.17;98685.91;5048776;28;20052;-85
2023/03/10 10:26:55;;;;;;;8.02;4.55;;;;;;;17.72;51.06;98606.09;5046707;28;20025;-86
2023/03/10 10:29:23;;;;;;;5.82;4.13;;;;;;;18.47;50.99;98698.16;5046402;28;20021;-85
2023/03/10 10:32:20;;;;;;;7.32;4.07;;;;;;;18.35;50.70;98657.38;5045679;28;20032;-85
2023/03/10 10:34:47;;;;;;;6.30;4.22;;;;;;;18.15;50.55;98612.53;5014073;28;20039;-85
2023/03/10 10:37:34;;;;;;;8.43;4.97;;;;;;;18.86;50.40;98684.72;5046652;28;20162;-82
2023/03/10 10:40:00;;;;;;;10.45;4.50;;;;;;;18.94;49.89;98697.63;5041705;28;20025;-85
2023/03/10 10:42:33;;;;;;;7.45;4.80;;;;;;;18.53;49.61;98594.75;5046405;28;20505;-84
2023/03/10 10:45:38;;;;;;;4.53;3.35;;;;;;;19.01;49.38;98653.56;5045393;28;20071;-84
2023/03/10 10:48:05;;;;;;;7.70;3.30;;;;;;;18.72;48.99;98580.81;5039537;28;20049;-84
2023/03/10 10:50:36;;;;;;;7.65;3.60;;;;;;;18.76;48.80;98565.09;5042896;28;20059;-85
2023/03/10 10:53:25;;;;;;;6.47;3.70;;;;;;;19.46;48.34;98641.63;5046005;28;20431;-83
2023/03/10 10:56:05;;;;;;;9.45;4.07;;;;;;;19.33;48.55;98608.06;5050517;28;20098;-84
2023/03/10 10:58:36;;;;;;;8.20;5.03;;;;;;;19.66;47.87;98606.16;5044863;28;20036;-84
2023/03/10 11:01:08;;;;;;;10.25;4.13;;;;;;;19.48;47.85;98558.38;5047081;28;20036;-84
2023/03/10 11:03:35;;;;;;;;;;;;;;;19.94;47.90;98631.75;5043860;28;20037;-84
2023/03/10 11:06:12;;;;;;;6.22;3.92;;;;;;;20.09;47.26;98628.34;5043937;28;19916;-86
2023/03/10 11:08:41;;;;;;;8.88;4.25;;;;;;;20.21;46.98;98610.97;5045177;28;20182;-84
2023/03/10 11:11:14;;;;;;;9.73;3.53;;;;;;;20.30;46.75;98604.03;5041883;28;20106;-85
2023/03/10 11:14:12;;;;;;;7.43;3.75;;;;;;;20.35;46.54;98613.16;5035123;28;20029;-84
2023/03/10 11:16:43;;;;;;;5.78;3.70;;;;;;;20.36;46.58;98612.91;5029125;28;20041;-84
2023/03/10 11:19:36;;;;;;;15.63;4.60;;;;;;;19.86;46.55;98533.13;5049717;28;20036;-84
2023/03/10 11:22:29;;;;;;;6.88;4.00;;;;;;;18.25;46.51;98273.31;5064504;28;20120;-84
2023/03/10 11:25:10;;;;;;;8.23;3.72;;;;;;;20.23;46.55;98576.69;5044963;28;20045;-82
2023/03/10 11:28:01;;;;;;;6.07;3.40;;;;;;;20.16;46.49;98557.38;5043034;28;20033;-84
2023/03/10 11:30:32;;;;;;;8.02;3.75;;;;;;;20.06;46.75;98535.06;5042565;28;20040;-86
2023/03/10 11:33:21;;;;;;;7.05;4.10;;;;;;;20.25;46.66;98560.34;5044593;28;20420;-85